Time;durP1;ratioP1;P1;durP2;ratioP2;P2;SDS_P1;SDS_P2;PMS_P1;PMS_P2;Temp;Humidity;BMP_temperature;BMP_pressure;BME280_temperature;BME280_humidity;BME280_pressure;Samples;Min_cycle;Max_cycle;Signal;HPM_P1;HPM_P2
2023/07/15 00:01:52;;;;;;;;;1.33;1.33;;;;;;;;5057738;28;29901;-91
2023/07/15 00:04:18;;;;;;;;;5.00;2.00;;;;;;;;5058640;28;28306;-91
2023/07/15 00:06:44;;;;;;;;;2.00;2.00;;;;;;;;5057830;28;28651;-90
2023/07/15 00:09:09;;;;;;;;;2.00;2.00;;;;;;;;5043963;28;28651;-90
2023/07/15 00:11:41;;;;;;;;;1.67;1.67;;;;;;;;5058933;28;28507;-90
2023/07/15 00:14:16;;;;;;;;;2.00;2.00;;;;;;;;5058927;28;28390;-91
2023/07/15 00:16:41;;;;;;;;;2.00;2.00;;;;;;;;5057558;28;28360;-91
2023/07/15 00:19:06;;;;;;;;;2.67;2.67;;;;;;;;5056960;28;28288;-90
2023/07/15 00:21:32;;;;;;;;;2.00;2.00;;;;;;;;5058680;28;28305;-91
2023/07/15 00:23:58;;;;;;;;;1.00;1.00;;;;;;;;5058617;28;28323;-91
2023/07/15 00:26:25;;;;;;;;;2.00;2.00;;;;;;;;5058847;28;28334;-90
2023/07/15 00:28:51;;;;;;;;;1.00;1.00;;;;;;;;5057248;28;28362;-91
2023/07/15 00:31:20;;;;;;;;;1.00;1.00;;;;;;;;5057302;28;29682;-91
2023/07/15 00:33:46;;;;;;;;;1.67;1.67;;;;;;;;5056954;28;28650;-90
2023/07/15 00:36:12;;;;;;;;;1.67;1.67;;;;;;;;5058719;28;28239;-90
2023/07/15 00:38:37;;;;;;;;;1.00;1.00;;;;;;;;5058308;28;28325;-90
2023/07/15 00:41:05;;;;;;;;;1.33;1.33;;;;;;;;5058311;28;28448;-91
2023/07/15 00:43:49;;;;;;;;;1.00;1.00;;;;;;;;5058455;28;28385;-91
2023/07/15 00:46:17;;;;;;;;;2.00;2.00;;;;;;;;5058329;28;28397;-91
2023/07/15 00:48:49;;;;;;;;;1.67;1.67;;;;;;;;5056779;28;28527;-91
2023/07/15 00:51:15;;;;;;;;;1.00;1.00;;;;;;;;5056801;28;29463;-91
2023/07/15 00:53:42;;;;;;;;;1.67;1.00;;;;;;;;5058295;28;28512;-90
2023/07/15 00:56:08;;;;;;;;;1.33;1.33;;;;;;;;5056901;28;28528;-90
2023/07/15 00:58:34;;;;;;;;;2.00;2.00;;;;;;;;5056879;28;28465;-90
2023/07/15 01:00:59;;;;;;;;;2.00;2.00;;;;;;;;5057890;28;29300;-90
2023/07/15 01:03:24;;;;;;;;;1.00;1.00;;;;;;;;5057393;28;28332;-90
2023/07/15 01:05:50;;;;;;;;;1.00;1.00;;;;;;;;5056274;28;28253;-90
2023/07/15 01:08:15;;;;;;;;;1.00;1.00;;;;;;;;5056907;28;28620;-91
2023/07/15 01:10:40;;;;;;;;;1.00;1.00;;;;;;;;5057769;28;29497;-90
2023/07/15 01:13:05;;;;;;;;;2.67;2.00;;;;;;;;5056760;28;29346;-90
2023/07/15 01:15:30;;;;;;;;;3.00;3.00;;;;;;;;5056658;28;28297;-90
2023/07/15 01:17:56;;;;;;;;;1.00;1.00;;;;;;;;5057664;28;28239;-90
2023/07/15 01:20:25;;;;;;;;;2.00;2.00;;;;;;;;5056216;28;28639;-91
2023/07/15 01:22:50;;;;;;;;;1.00;1.00;;;;;;;;5057953;28;28402;-91
2023/07/15 01:25:16;;;;;;;;;1.00;1.00;;;;;;;;5057510;28;28749;-91
2023/07/15 01:27:41;;;;;;;;;1.00;1.00;;;;;;;;5057902;28;28428;-90
2023/07/15 01:30:06;;;;;;;;;1.00;1.00;;;;;;;;5057726;28;29656;-90
2023/07/15 01:32:31;;;;;;;;;1.00;1.00;;;;;;;;5057613;28;29120;-90
2023/07/15 01:34:57;;;;;;;;;0.67;0.67;;;;;;;;5057480;28;28539;-90
2023/07/15 01:37:22;;;;;;;;;1.67;1.67;;;;;;;;5056498;28;28369;-90
2023/07/15 01:39:49;;;;;;;;;0.67;0.67;;;;;;;;5057374;28;28338;-91
2023/07/15 01:42:14;;;;;;;;;1.33;1.33;;;;;;;;5057564;28;28544;-91
2023/07/15 01:44:40;;;;;;;;;2.00;2.00;;;;;;;;5057486;28;28618;-91
2023/07/15 01:47:05;;;;;;;;;1.67;1.67;;;;;;;;5057630;28;28275;-90
2023/07/15 01:49:30;;;;;;;;;1.00;1.00;;;;;;;;5056969;28;28298;-90
2023/07/15 01:51:55;;;;;;;;;1.00;1.00;;;;;;;;5056073;28;28361;-90
2023/07/15 01:54:21;;;;;;;;;0.00;0.00;;;;;;;;5055915;28;28547;-90
2023/07/15 01:56:46;;;;;;;;;0.00;0.00;;;;;;;;5056249;28;28386;-91
2023/07/15 01:59:11;;;;;;;;;0.67;0.67;;;;;;;;5055817;28;29809;-90
2023/07/15 02:01:37;;;;;;;;;0.00;0.00;;;;;;;;5057391;28;28376;-90
2023/07/15 02:04:03;;;;;;;;;0.00;0.00;;;;;;;;5055746;28;28343;-90
2023/07/15 02:06:28;;;;;;;;;0.00;0.00;;;;;;;;5056076;28;28279;-90
2023/07/15 02:08:56;;;;;;;;;0.00;0.00;;;;;;;;5055549;28;29382;-91
2023/07/15 02:11:22;;;;;;;;;0.00;0.00;;;;;;;;5057268;28;28346;-90
2023/07/15 02:13:47;;;;;;;;;0.00;0.00;;;;;;;;5057305;28;28313;-90
2023/07/15 02:16:12;;;;;;;;;0.00;0.00;;;;;;;;5057092;28;28452;-90
2023/07/15 02:18:37;;;;;;;;;0.67;0.67;;;;;;;;5055148;28;30085;-90
2023/07/15 02:21:04;;;;;;;;;0.00;0.00;;;;;;;;5057008;28;28422;-90
2023/07/15 02:23:32;;;;;;;;;0.00;0.00;;;;;;;;5055494;28;28388;-90
2023/07/15 02:25:57;;;;;;;;;0.00;0.00;;;;;;;;5056865;28;28600;-90
2023/07/15 02:28:26;;;;;;;;;0.00;0.00;;;;;;;;5055261;28;28636;-90
2023/07/15 02:30:51;;;;;;;;;0.00;0.00;;;;;;;;5057112;28;28425;-90
2023/07/15 02:33:17;;;;;;;;;0.00;0.00;;;;;;;;5056629;28;28346;-90
2023/07/15 02:35:42;;;;;;;;;0.00;0.00;;;;;;;;5055803;28;28465;-91
2023/07/15 02:38:07;;;;;;;;;0.00;0.00;;;;;;;;5056843;28;28519;-91
2023/07/15 02:40:32;;;;;;;;;0.00;0.00;;;;;;;;5055334;28;28777;-90
2023/07/15 02:42:58;;;;;;;;;0.00;0.00;;;;;;;;5056789;28;28501;-91
2023/07/15 02:45:23;;;;;;;;;0.00;0.00;;;;;;;;5057018;28;28682;-91
2023/07/15 02:47:48;;;;;;;;;0.00;0.00;;;;;;;;5056369;28;28354;-90
2023/07/15 02:50:14;;;;;;;;;0.00;0.00;;;;;;;;5056671;28;28377;-90
2023/07/15 02:52:41;;;;;;;;;0.33;0.33;;;;;;;;5056834;28;28453;-90
2023/07/15 02:55:06;;;;;;;;;0.00;0.00;;;;;;;;5056746;28;28304;-90
2023/07/15 02:57:32;;;;;;;;;0.00;0.00;;;;;;;;5056372;28;29555;-90
2023/07/15 02:59:58;;;;;;;;;0.00;0.00;;;;;;;;5056462;28;28368;-90
2023/07/15 03:02:23;;;;;;;;;0.00;0.00;;;;;;;;5055290;28;28412;-91
2023/07/15 03:04:49;;;;;;;;;0.00;0.00;;;;;;;;5056468;28;28229;-90
2023/07/15 03:07:15;;;;;;;;;0.67;0.67;;;;;;;;5055112;28;29788;-90
2023/07/15 03:09:40;;;;;;;;;0.33;0.33;;;;;;;;5054990;28;29408;-90
2023/07/15 03:12:06;;;;;;;;;0.00;0.00;;;;;;;;5056612;28;28395;-90
2023/07/15 03:14:32;;;;;;;;;0.00;0.00;;;;;;;;5056655;28;28499;-90
2023/07/15 03:16:57;;;;;;;;;0.00;0.00;;;;;;;;5054865;28;29852;-90
2023/07/15 03:19:22;;;;;;;;;0.00;0.00;;;;;;;;5054581;28;28722;-90
2023/07/15 03:21:48;;;;;;;;;0.00;0.00;;;;;;;;5056218;28;28296;-90
2023/07/15 03:24:16;;;;;;;;;0.00;0.00;;;;;;;;5056133;28;28472;-90
2023/07/15 03:26:41;;;;;;;;;0.00;0.00;;;;;;;;5056138;28;28538;-91
2023/07/15 03:29:08;;;;;;;;;0.67;0.33;;;;;;;;5058224;28;29606;-90
2023/07/15 03:31:34;;;;;;;;;0.00;0.00;;;;;;;;5059826;28;28292;-90
2023/07/15 03:34:00;;;;;;;;;0.00;0.00;;;;;;;;5058127;28;28579;-90
2023/07/15 03:36:25;;;;;;;;;0.67;0.67;;;;;;;;5058236;28;28715;-90
2023/07/15 03:38:50;;;;;;;;;0.00;0.00;;;;;;;;5059452;28;28561;-90
2023/07/15 03:41:15;;;;;;;;;0.67;0.67;;;;;;;;5059488;28;28395;-90
2023/07/15 03:43:41;;;;;;;;;0.00;0.00;;;;;;;;5058395;28;28346;-90
2023/07/15 03:46:06;;;;;;;;;0.00;0.00;;;;;;;;5058087;28;29644;-91
2023/07/15 03:48:31;;;;;;;;;0.00;0.00;;;;;;;;5057701;28;28464;-91
2023/07/15 03:50:57;;;;;;;;;0.00;0.00;;;;;;;;5059469;28;28309;-90
2023/07/15 03:53:22;;;;;;;;;0.00;0.00;;;;;;;;5058165;28;28638;-90
2023/07/15 03:55:47;;;;;;;;;0.00;0.00;;;;;;;;5059137;28;28383;-90
2023/07/15 03:58:15;;;;;;;;;0.00;0.00;;;;;;;;5059150;28;28516;-90
2023/07/15 04:00:41;;;;;;;;;0.00;0.00;;;;;;;;5059011;28;28283;-90
2023/07/15 04:03:07;;;;;;;;;0.33;0.33;;;;;;;;5058973;28;28369;-90
2023/07/15 04:05:32;;;;;;;;;0.00;0.00;;;;;;;;5059191;28;28416;-90
2023/07/15 04:07:57;;;;;;;;;0.67;0.67;;;;;;;;5057825;28;28294;-90
2023/07/15 04:10:22;;;;;;;;;0.00;0.00;;;;;;;;5057532;28;28271;-91
2023/07/15 04:12:48;;;;;;;;;0.00;0.00;;;;;;;;5059210;28;28612;-90
2023/07/15 04:15:13;;;;;;;;;0.33;0.33;;;;;;;;5057493;28;29684;-91
2023/07/15 04:17:38;;;;;;;;;0.00;0.00;;;;;;;;5057253;28;28320;-90
2023/07/15 04:20:10;;;;;;;;;0.00;0.00;;;;;;;;5058775;28;28362;-91
2023/07/15 04:22:37;;;;;;;;;0.67;0.67;;;;;;;;5057648;28;28733;-90
2023/07/15 04:25:02;;;;;;;;;0.67;0.67;;;;;;;;5056951;28;29731;-90
2023/07/15 04:27:27;;;;;;;;;0.00;0.00;;;;;;;;5058756;28;28356;-90
2023/07/15 04:29:53;;;;;;;;;0.00;0.00;;;;;;;;5058754;28;28301;-90
2023/07/15 04:32:18;;;;;;;;;1.00;1.00;;;;;;;;5058898;28;28231;-90
2023/07/15 04:34:49;;;;;;;;;0.00;0.00;;;;;;;;5056967;28;30068;-90
2023/07/15 04:37:15;;;;;;;;;0.00;0.00;;;;;;;;5058833;28;28397;-90
2023/07/15 04:39:40;;;;;;;;;0.33;0.33;;;;;;;;5055364;28;28428;-90
2023/07/15 04:42:05;;;;;;;;;0.33;0.33;;;;;;;;5046786;28;28281;-90
2023/07/15 04:44:30;;;;;;;;;1.33;0.00;;;;;;;;5058535;28;28922;-90
2023/07/15 04:46:56;;;;;;;;;0.00;0.00;;;;;;;;5057171;28;28338;-90
2023/07/15 04:49:23;;;;;;;;;0.67;0.67;;;;;;;;5058147;28;28465;-90
2023/07/15 04:51:49;;;;;;;;;0.33;0.33;;;;;;;;5058594;28;28560;-90
2023/07/15 04:54:14;;;;;;;;;0.00;0.00;;;;;;;;5056786;28;30013;-90
2023/07/15 04:56:39;;;;;;;;;0.00;0.00;;;;;;;;5052789;28;28464;-90
2023/07/15 04:59:05;;;;;;;;;0.67;0.67;;;;;;;;5058203;28;28530;-90
2023/07/15 05:01:30;;;;;;;;;0.00;0.00;;;;;;;;5058467;28;28433;-90
2023/07/15 05:03:56;;;;;;;;;0.00;0.00;;;;;;;;5056513;28;30207;-90
2023/07/15 05:06:21;;;;;;;;;0.00;0.00;;;;;;;;5051202;28;28401;-90
2023/07/15 05:08:46;;;;;;;;;0.00;0.00;;;;;;;;5050336;28;28483;-90
2023/07/15 05:11:12;;;;;;;;;0.00;0.00;;;;;;;;5043807;28;28293;-90
2023/07/15 05:13:37;;;;;;;;;0.67;0.67;;;;;;;;5058047;28;29144;-90
2023/07/15 05:16:03;;;;;;;;;0.00;0.00;;;;;;;;5058216;28;28433;-91
2023/07/15 05:18:29;;;;;;;;;0.00;0.00;;;;;;;;5056279;28;28390;-90
2023/07/15 05:20:54;;;;;;;;;0.00;0.00;;;;;;;;5058053;28;28370;-91
2023/07/15 05:23:20;;;;;;;;;0.00;0.00;;;;;;;;5057865;28;28405;-91
2023/07/15 05:25:46;;;;;;;;;0.00;0.00;;;;;;;;5057392;28;28450;-90
2023/07/15 05:28:11;;;;;;;;;0.00;0.00;;;;;;;;5058009;28;28476;-90
2023/07/15 05:30:37;;;;;;;;;0.67;0.00;;;;;;;;5057808;28;28716;-91
2023/07/15 05:33:02;;;;;;;;;0.00;0.00;;;;;;;;5057605;28;29082;-91
2023/07/15 05:35:27;;;;;;;;;0.00;0.00;;;;;;;;5056345;28;28817;-91
2023/07/15 05:37:53;;;;;;;;;0.00;0.00;;;;;;;;5057972;28;28242;-90
2023/07/15 05:40:18;;;;;;;;;0.00;0.00;;;;;;;;5049972;28;28508;-90
2023/07/15 05:42:43;;;;;;;;;0.00;0.00;;;;;;;;5049471;28;29878;-90
2023/07/15 05:45:09;;;;;;;;;0.00;0.00;;;;;;;;5056325;28;28262;-90
2023/07/15 05:47:34;;;;;;;;;0.00;0.00;;;;;;;;5057189;28;28617;-91
2023/07/15 05:50:00;;;;;;;;;0.00;0.00;;;;;;;;5057062;28;28568;-91
2023/07/15 05:52:25;;;;;;;;;0.00;0.00;;;;;;;;5056093;28;29582;-90
2023/07/15 05:54:50;;;;;;;;;0.00;0.00;;;;;;;;5055838;28;28472;-90
2023/07/15 05:57:16;;;;;;;;;0.00;0.00;;;;;;;;5057591;28;28551;-90
2023/07/15 05:59:41;;;;;;;;;0.00;0.00;;;;;;;;5056042;28;28487;-90
2023/07/15 06:02:06;;;;;;;;;0.00;0.00;;;;;;;;5057259;28;28602;-90
2023/07/15 06:04:31;;;;;;;;;0.00;0.00;;;;;;;;5055558;28;28370;-91
2023/07/15 06:06:57;;;;;;;;;1.67;0.00;;;;;;;;5057377;28;28495;-90
2023/07/15 06:09:22;;;;;;;;;0.00;0.00;;;;;;;;5055737;28;28493;-90
2023/07/15 06:11:47;;;;;;;;;0.00;0.00;;;;;;;;5055846;28;30779;-90
2023/07/15 06:14:12;;;;;;;;;0.33;0.33;;;;;;;;5057035;28;28385;-90
2023/07/15 06:16:37;;;;;;;;;0.00;0.00;;;;;;;;5056020;28;28376;-91
2023/07/15 06:19:03;;;;;;;;;0.00;0.00;;;;;;;;5056584;28;28604;-91
2023/07/15 06:21:28;;;;;;;;;0.00;0.00;;;;;;;;5055713;28;29904;-90
2023/07/15 06:23:53;;;;;;;;;1.00;1.00;;;;;;;;5055226;28;28431;-91
2023/07/15 06:26:19;;;;;;;;;1.00;1.00;;;;;;;;5055730;28;28436;-91
2023/07/15 06:28:44;;;;;;;;;1.33;0.33;;;;;;;;5056836;28;28553;-91
2023/07/15 06:31:10;;;;;;;;;1.00;0.00;;;;;;;;5057104;28;28580;-90
2023/07/15 06:33:36;;;;;;;;;0.00;0.00;;;;;;;;5056444;28;28236;-90
2023/07/15 06:36:02;;;;;;;;;0.00;0.00;;;;;;;;5057108;28;28305;-90
2023/07/15 06:38:30;;;;;;;;;1.00;1.00;;;;;;;;5055415;28;28326;-91
2023/07/15 06:40:58;;;;;;;;;0.33;0.33;;;;;;;;5056629;28;28398;-91
2023/07/15 06:43:23;;;;;;;;;1.00;1.00;;;;;;;;5056672;28;28340;-91
2023/07/15 06:45:49;;;;;;;;;0.67;0.67;;;;;;;;5055524;28;28579;-91
2023/07/15 06:48:14;;;;;;;;;0.00;0.00;;;;;;;;5041879;28;28398;-90
2023/07/15 06:50:40;;;;;;;;;1.00;1.00;;;;;;;;5043314;28;28618;-91
2023/07/15 06:53:06;;;;;;;;;1.00;1.00;;;;;;;;5048601;28;28684;-91
2023/07/15 06:55:31;;;;;;;;;1.00;1.00;;;;;;;;5048662;28;28305;-91
2023/07/15 06:57:56;;;;;;;;;0.33;0.33;;;;;;;;5050269;28;28241;-90
2023/07/15 07:00:22;;;;;;;;;1.67;1.67;;;;;;;;5055004;28;30685;-90
2023/07/15 07:02:48;;;;;;;;;2.00;2.00;;;;;;;;5056629;28;28955;-91
2023/07/15 07:05:13;;;;;;;;;0.67;0.67;;;;;;;;5058820;28;28270;-90
2023/07/15 07:07:38;;;;;;;;;1.00;1.00;;;;;;;;5060034;28;28317;-91
2023/07/15 07:10:04;;;;;;;;;1.00;1.00;;;;;;;;5058423;28;30992;-91
2023/07/15 07:12:29;;;;;;;;;1.00;1.00;;;;;;;;5059844;28;28243;-91
2023/07/15 07:14:54;;;;;;;;;0.00;0.00;;;;;;;;5058663;28;28488;-91
2023/07/15 07:17:19;;;;;;;;;0.00;0.00;;;;;;;;5059525;28;28727;-90
2023/07/15 07:19:46;;;;;;;;;1.00;1.00;;;;;;;;5059654;28;28532;-91
2023/07/15 07:22:11;;;;;;;;;0.67;0.67;;;;;;;;5059658;28;28495;-91
2023/07/15 07:24:36;;;;;;;;;1.00;1.00;;;;;;;;5057536;28;28581;-91
2023/07/15 07:27:02;;;;;;;;;2.00;2.00;;;;;;;;5059725;28;28476;-91
2023/07/15 07:29:27;;;;;;;;;1.00;1.00;;;;;;;;5059691;28;28406;-90
2023/07/15 07:31:52;;;;;;;;;1.00;1.00;;;;;;;;5059469;28;28445;-91
2023/07/15 07:34:18;;;;;;;;;0.33;0.33;;;;;;;;5059582;28;28490;-91
2023/07/15 07:36:44;;;;;;;;;1.67;1.67;;;;;;;;5054563;28;28333;-91
2023/07/15 07:39:09;;;;;;;;;0.67;0.67;;;;;;;;5048397;28;29694;-91
2023/07/15 07:41:34;;;;;;;;;1.00;1.00;;;;;;;;5057890;28;28322;-90
2023/07/15 07:43:59;;;;;;;;;3.00;1.00;;;;;;;;5059584;28;28419;-91
2023/07/15 07:46:25;;;;;;;;;1.67;1.67;;;;;;;;5059478;28;28517;-90
2023/07/15 07:48:50;;;;;;;;;1.67;1.67;;;;;;;;5058891;28;28395;-90
2023/07/15 07:51:15;;;;;;;;;1.00;1.00;;;;;;;;5057873;28;29554;-91
2023/07/15 07:53:40;;;;;;;;;1.00;1.00;;;;;;;;5059434;28;28310;-91
2023/07/15 07:56:06;;;;;;;;;1.00;1.00;;;;;;;;5059440;28;28299;-90
2023/07/15 07:58:31;;;;;;;;;0.67;0.67;;;;;;;;5058950;28;29394;-91
2023/07/15 08:00:56;;;;;;;;;1.00;1.00;;;;;;;;5059049;28;28259;-91
2023/07/15 08:03:21;;;;;;;;;2.00;2.00;;;;;;;;5057565;28;28386;-91
2023/07/15 08:05:47;;;;;;;;;1.00;1.00;;;;;;;;5059222;28;28330;-91
2023/07/15 08:08:13;;;;;;;;;1.00;1.00;;;;;;;;5059213;28;28327;-90
2023/07/15 08:10:39;;;;;;;;;1.00;1.00;;;;;;;;5057485;28;28656;-91
2023/07/15 08:13:07;;;;;;;;;1.00;1.00;;;;;;;;5057472;28;28303;-91
2023/07/15 08:15:35;;;;;;;;;0.00;0.00;;;;;;;;5057617;28;28444;-90
2023/07/15 08:18:01;;;;;;;;;0.33;0.33;;;;;;;;5057156;28;29895;-90
2023/07/15 08:20:26;;;;;;;;;0.00;0.00;;;;;;;;5057287;28;28322;-91
2023/07/15 08:22:52;;;;;;;;;1.00;1.00;;;;;;;;5058862;28;28315;-91
2023/07/15 08:25:17;;;;;;;;;0.00;0.00;;;;;;;;5058611;28;28286;-91
2023/07/15 08:27:42;;;;;;;;;1.00;1.00;;;;;;;;5058754;28;28345;-91
2023/07/15 08:30:08;;;;;;;;;0.00;0.00;;;;;;;;5058737;28;28234;-91
2023/07/15 08:32:33;;;;;;;;;0.00;0.00;;;;;;;;5091035;28;28274;-91
2023/07/15 08:34:59;;;;;;;;;1.00;1.00;;;;;;;;5091274;28;28312;-90
2023/07/15 08:37:25;;;;;;;;;1.00;1.00;;;;;;;;5058797;28;28372;-90
2023/07/15 08:39:50;;;;;;;;;0.00;0.00;;;;;;;;5056987;28;28313;-91
2023/07/15 08:42:15;;;;;;;;;0.00;0.00;;;;;;;;5057485;28;28325;-90
2023/07/15 08:44:40;;;;;;;;;1.00;1.00;;;;;;;;5057199;28;28578;-91
2023/07/15 08:47:07;;;;;;;;;0.50;0.50;;;;;;;;5058455;28;28809;-91
2023/07/15 08:49:34;;;;;;;;;0.67;0.67;;;;;;;;5056609;28;29511;-90
2023/07/15 08:52:01;;;;;;;;;0.67;0.67;;;;;;;;5057166;28;28567;-90
2023/07/15 08:54:27;;;;;;;;;0.00;0.00;;;;;;;;5058385;28;28312;-90
2023/07/15 08:56:52;;;;;;;;;0.67;0.67;;;;;;;;5056872;28;30008;-90
2023/07/15 08:59:18;;;;;;;;;0.00;0.00;;;;;;;;5056976;28;29481;-90
2023/07/15 09:01:43;;;;;;;;;0.00;0.00;;;;;;;;5058386;28;28562;-90
2023/07/15 09:04:09;;;;;;;;;0.00;0.00;;;;;;;;5056685;28;28255;-90
2023/07/15 09:06:35;;;;;;;;;0.00;0.00;;;;;;;;5056929;28;29870;-91
2023/07/15 09:09:00;;;;;;;;;0.00;0.00;;;;;;;;5056581;28;28265;-90
2023/07/15 09:11:36;;;;;;;;;0.00;0.00;;;;;;;;5058212;28;28426;-90
2023/07/15 09:14:11;;;;;;;;;0.00;0.00;;;;;;;;5056846;28;28400;-91
2023/07/15 09:16:38;;;;;;;;;0.00;0.00;;;;;;;;5057983;28;29260;-91
2023/07/15 09:19:03;;;;;;;;;0.00;0.00;;;;;;;;5056067;28;28802;-91
2023/07/15 09:21:28;;;;;;;;;0.00;0.00;;;;;;;;5056630;28;28365;-91
2023/07/15 09:23:59;;;;;;;;;0.00;0.00;;;;;;;;5057505;28;28388;-91
2023/07/15 09:26:25;;;;;;;;;0.00;0.00;;;;;;;;5055693;28;28442;-90
2023/07/15 09:28:50;;;;;;;;;0.00;0.00;;;;;;;;5056386;28;28496;-91
2023/07/15 09:31:27;;;;;;;;;0.00;0.00;;;;;;;;5057902;28;28243;-91
2023/07/15 09:34:01;;;;;;;;;0.00;0.00;;;;;;;;5057499;28;28526;-91
2023/07/15 09:36:32;;;;;;;;;1.00;1.00;;;;;;;;5057665;28;29528;-91
2023/07/15 09:39:13;;;;;;;;;0.33;0.33;;;;;;;;5057653;28;28250;-90
2023/07/15 09:41:39;;;;;;;;;0.00;0.00;;;;;;;;5057433;28;28444;-91
2023/07/15 09:44:04;;;;;;;;;0.00;0.00;;;;;;;;5056414;28;28488;-91
2023/07/15 09:46:30;;;;;;;;;0.00;0.00;;;;;;;;5057362;28;28549;-91
2023/07/15 09:48:56;;;;;;;;;0.00;0.00;;;;;;;;5055958;28;28510;-91
2023/07/15 09:51:21;;;;;;;;;0.00;0.00;;;;;;;;5057444;28;28297;-91
2023/07/15 09:53:51;;;;;;;;;0.00;0.00;;;;;;;;5056221;28;28441;-91
2023/07/15 09:56:36;;;;;;;;;0.00;0.00;;;;;;;;5056008;28;28460;-91
2023/07/15 09:59:11;;;;;;;;;0.00;0.00;;;;;;;;5049702;28;28504;-90
2023/07/15 10:01:42;;;;;;;;;0.00;0.00;;;;;;;;5057633;28;28322;-90
2023/07/15 10:04:11;;;;;;;;;0.00;0.00;;;;;;;;5089581;28;28335;-91
2023/07/15 10:06:37;;;;;;;;;0.00;0.00;;;;;;;;5055965;28;30120;-90
2023/07/15 10:09:07;;;;;;;;;1.00;0.00;;;;;;;;5055534;28;28919;-91
2023/07/15 10:11:33;;;;;;;;;0.00;0.00;;;;;;;;5057332;28;28379;-90
2023/07/15 10:13:58;;;;;;;;;0.00;0.00;;;;;;;;5057339;28;28306;-90
2023/07/15 10:16:26;;;;;;;;;0.00;0.00;;;;;;;;5057227;28;28295;-91
2023/07/15 10:18:53;;;;;;;;;0.00;0.00;;;;;;;;5055221;28;28507;-91
2023/07/15 10:21:19;;;;;;;;;0.00;0.00;;;;;;;;5055733;28;28538;-91
2023/07/15 10:23:44;;;;;;;;;0.33;0.33;;;;;;;;5056737;28;28475;-90
2023/07/15 10:26:10;;;;;;;;;0.00;0.00;;;;;;;;5057000;28;28643;-91
2023/07/15 10:28:38;;;;;;;;;0.00;0.00;;;;;;;;5055506;28;28567;-90
2023/07/15 10:31:14;;;;;;;;;0.00;0.00;;;;;;;;5057123;28;28494;-90
2023/07/15 10:33:58;;;;;;;;;0.00;0.00;;;;;;;;5056654;28;28419;-90
2023/07/15 10:36:36;;;;;;;;;1.00;1.00;;;;;;;;5057714;28;29452;-90
2023/07/15 10:39:17;;;;;;;;;0.00;0.00;;;;;;;;5060459;28;28341;-91
2023/07/15 10:41:48;;;;;;;;;0.00;0.00;;;;;;;;5060157;28;28239;-90
2023/07/15 10:44:20;;;;;;;;;0.00;0.00;;;;;;;;5060619;28;29169;-91
2023/07/15 10:47:06;;;;;;;;;0.00;0.00;;;;;;;;5060398;28;28245;-91
2023/07/15 10:49:31;;;;;;;;;0.00;0.00;;;;;;;;5059919;28;28369;-90
2023/07/15 10:51:57;;;;;;;;;0.00;0.00;;;;;;;;5059013;28;28539;-90
2023/07/15 10:54:24;;;;;;;;;0.00;0.00;;;;;;;;5058868;28;28382;-91
2023/07/15 10:56:49;;;;;;;;;0.00;0.00;;;;;;;;5058924;28;29910;-91
2023/07/15 10:59:15;;;;;;;;;0.00;0.00;;;;;;;;5058619;28;28651;-90
2023/07/15 11:01:42;;;;;;;;;0.00;0.00;;;;;;;;5060159;28;28520;-91
2023/07/15 11:04:07;;;;;;;;;0.00;0.00;;;;;;;;5059921;28;28423;-91
2023/07/15 11:06:34;;;;;;;;;0.00;0.00;;;;;;;;5058715;28;29633;-90
2023/07/15 11:09:12;;;;;;;;;0.00;0.00;;;;;;;;5058464;28;29410;-91
2023/07/15 11:11:37;;;;;;;;;0.00;0.00;;;;;;;;5060243;28;28543;-91
2023/07/15 11:14:03;;;;;;;;;1.00;0.00;;;;;;;;5054317;28;28611;-90
2023/07/15 11:16:28;;;;;;;;;0.00;0.00;;;;;;;;5083170;28;28558;-91
2023/07/15 11:18:53;;;;;;;;;0.00;0.00;;;;;;;;5057939;28;28768;-91
2023/07/15 11:21:19;;;;;;;;;0.00;0.00;;;;;;;;5047855;28;28492;-91
2023/07/15 11:23:45;;;;;;;;;0.00;0.00;;;;;;;;5056862;28;28532;-90
2023/07/15 11:26:10;;;;;;;;;0.00;0.00;;;;;;;;5059881;28;29275;-90
2023/07/15 11:28:45;;;;;;;;;0.00;0.00;;;;;;;;5044750;28;28988;-90
2023/07/15 11:31:10;;;;;;;;;0.00;0.00;;;;;;;;5048388;28;28390;-91
2023/07/15 11:33:38;;;;;;;;;0.00;0.00;;;;;;;;5051303;28;28810;-91
2023/07/15 11:36:03;;;;;;;;;0.00;0.00;;;;;;;;5050259;28;30277;-91
2023/07/15 11:38:30;;;;;;;;;0.00;0.00;;;;;;;;5045869;28;28282;-90
2023/07/15 11:40:56;;;;;;;;;0.00;0.00;;;;;;;;5058251;28;28287;-90
2023/07/15 11:43:23;;;;;;;;;0.33;0.33;;;;;;;;5059369;28;28572;-90
2023/07/15 11:45:48;;;;;;;;;1.00;1.00;;;;;;;;5058070;28;30758;-91
2023/07/15 11:48:23;;;;;;;;;1.00;1.00;;;;;;;;5058227;28;28505;-91
2023/07/15 11:50:51;;;;;;;;;0.00;0.00;;;;;;;;5058333;28;28424;-90
2023/07/15 11:53:30;;;;;;;;;0.00;0.00;;;;;;;;5058182;28;28560;-91
2023/07/15 11:55:55;;;;;;;;;1.00;1.00;;;;;;;;5058995;28;29359;-91
2023/07/15 11:58:37;;;;;;;;;0.00;0.00;;;;;;;;5059368;28;28424;-90
2023/07/15 12:01:02;;;;;;;;;0.00;0.00;;;;;;;;5091668;28;28383;-91
2023/07/15 12:03:28;;;;;;;;;0.00;0.00;;;;;;;;5059214;28;28531;-91
2023/07/15 12:05:53;;;;;;;;;0.00;0.00;;;;;;;;5057711;28;29931;-91
2023/07/15 12:08:19;;;;;;;;;0.00;0.00;;;;;;;;5057993;28;28607;-90
2023/07/15 12:10:48;;;;;;;;;0.00;0.00;;;;;;;;5058758;28;28313;-91
2023/07/15 12:13:13;;;;;;;;;0.00;0.00;;;;;;;;5057970;28;28567;-91
2023/07/15 12:15:38;;;;;;;;;0.00;0.00;;;;;;;;5091392;28;29838;-91
2023/07/15 12:18:04;;;;;;;;;0.00;0.00;;;;;;;;5057301;28;28900;-91
2023/07/15 12:20:29;;;;;;;;;1.00;1.00;;;;;;;;5057354;28;28575;-90
2023/07/15 12:22:54;;;;;;;;;0.00;0.00;;;;;;;;5059184;28;28420;-90
2023/07/15 12:25:23;;;;;;;;;0.33;0.33;;;;;;;;5058325;28;28444;-91
2023/07/15 12:27:48;;;;;;;;;0.00;0.00;;;;;;;;5057493;28;28271;-91
2023/07/15 12:30:13;;;;;;;;;0.67;0.67;;;;;;;;5058737;28;28263;-91
2023/07/15 12:32:38;;;;;;;;;0.00;0.00;;;;;;;;5058720;28;28220;-91
2023/07/15 12:35:04;;;;;;;;;0.00;0.00;;;;;;;;5057178;28;30763;-91
2023/07/15 12:37:29;;;;;;;;;0.00;0.00;;;;;;;;5059041;28;28365;-91
2023/07/15 12:39:54;;;;;;;;;0.00;0.00;;;;;;;;5057067;28;28338;-91
2023/07/15 12:42:20;;;;;;;;;0.00;0.00;;;;;;;;5058836;28;28559;-91
2023/07/15 12:44:45;;;;;;;;;0.00;0.00;;;;;;;;5058428;28;29369;-91
2023/07/15 12:47:10;;;;;;;;;0.00;0.00;;;;;;;;5058166;28;28425;-91
2023/07/15 12:49:35;;;;;;;;;0.00;0.00;;;;;;;;5058566;28;28307;-91
2023/07/15 12:52:01;;;;;;;;;1.00;1.00;;;;;;;;5057226;28;28246;-91
2023/07/15 12:54:26;;;;;;;;;0.00;0.00;;;;;;;;5057010;28;29660;-91
2023/07/15 12:56:51;;;;;;;;;0.00;0.00;;;;;;;;5050695;28;28529;-91
2023/07/15 12:59:16;;;;;;;;;0.00;0.00;;;;;;;;5057773;28;28519;-90
2023/07/15 13:01:42;;;;;;;;;0.33;0.33;;;;;;;;5057728;28;28420;-91
2023/07/15 13:04:07;;;;;;;;;0.00;0.00;;;;;;;;5057795;28;28440;-91
2023/07/15 13:06:32;;;;;;;;;0.00;0.00;;;;;;;;3374321;28;34666804;-91
2023/07/15 13:08:58;;;;;;;;;0.75;0.75;;;;;;;;4816552;28;5245211;-91
2023/07/15 13:11:23;;;;;;;;;1.00;1.00;;;;;;;;4984695;28;1012381;-91
2023/07/15 13:13:48;;;;;;;;;0.00;0.00;;;;;;;;5058131;28;28565;-91
2023/07/15 13:16:16;;;;;;;;;1.33;1.33;;;;;;;;5058281;28;28493;-91
2023/07/15 13:18:41;;;;;;;;;1.33;1.33;;;;;;;;5056115;28;28583;-91
2023/07/15 13:21:06;;;;;;;;;1.00;1.00;;;;;;;;5057959;28;28313;-91
2023/07/15 13:23:31;;;;;;;;;0.00;0.00;;;;;;;;5057859;28;28309;-91
2023/07/15 13:25:57;;;;;;;;;1.00;1.00;;;;;;;;5056461;28;28413;-91
2023/07/15 13:28:22;;;;;;;;;0.00;0.00;;;;;;;;5057632;28;28296;-91
2023/07/15 13:30:47;;;;;;;;;2.00;1.00;;;;;;;;5056519;28;28647;-91
2023/07/15 13:33:13;;;;;;;;;0.33;0.33;;;;;;;;5057534;28;28290;-90
2023/07/15 13:35:38;;;;;;;;;0.67;0.67;;;;;;;;5057931;28;28286;-90
2023/07/15 13:38:03;;;;;;;;;1.00;1.00;;;;;;;;5056244;28;29738;-91
2023/07/15 13:40:29;;;;;;;;;0.00;0.00;;;;;;;;5056118;28;28257;-91
2023/07/15 13:42:54;;;;;;;;;0.00;0.00;;;;;;;;5056218;28;28333;-91
2023/07/15 13:45:19;;;;;;;;;0.00;0.00;;;;;;;;5056561;28;28343;-90
2023/07/15 13:47:50;;;;;;;;;0.00;0.00;;;;;;;;5055860;28;30551;-90
2023/07/15 13:50:15;;;;;;;;;0.00;0.00;;;;;;;;5056233;28;29372;-90
2023/07/15 13:52:40;;;;;;;;;0.00;0.00;;;;;;;;5055958;28;28587;-90
2023/07/15 13:55:06;;;;;;;;;1.00;1.00;;;;;;;;5056892;28;28502;-91
2023/07/15 13:57:31;;;;;;;;;0.00;0.00;;;;;;;;5057183;28;28448;-91
2023/07/15 13:59:56;;;;;;;;;0.00;0.00;;;;;;;;5055791;28;28678;-91
2023/07/15 14:02:22;;;;;;;;;1.67;1.00;;;;;;;;5043286;28;28330;-91
2023/07/15 14:04:47;;;;;;;;;0.33;0.33;;;;;;;;5056177;28;28558;-91
2023/07/15 14:07:13;;;;;;;;;0.00;0.00;;;;;;;;5055911;28;29788;-91
2023/07/15 14:09:38;;;;;;;;;1.00;1.00;;;;;;;;5055804;28;28597;-91
2023/07/15 14:12:06;;;;;;;;;0.00;0.00;;;;;;;;5056734;28;28242;-91
2023/07/15 14:14:31;;;;;;;;;0.00;0.00;;;;;;;;5055979;28;28576;-91
2023/07/15 14:16:57;;;;;;;;;0.00;0.00;;;;;;;;5056770;28;28395;-91
2023/07/15 14:19:22;;;;;;;;;1.00;1.00;;;;;;;;5057023;28;28243;-91
2023/07/15 14:21:47;;;;;;;;;1.00;1.00;;;;;;;;5055709;28;28442;-91
2023/07/15 14:24:13;;;;;;;;;0.00;0.00;;;;;;;;5056792;28;28409;-91
2023/07/15 14:26:38;;;;;;;;;0.00;0.00;;;;;;;;5057019;28;29251;-91
2023/07/15 14:29:04;;;;;;;;;0.33;0.33;;;;;;;;5056823;28;28428;-91
2023/07/15 14:31:30;;;;;;;;;0.00;0.00;;;;;;;;5056955;28;28361;-90
2023/07/15 14:33:57;;;;;;;;;0.00;0.00;;;;;;;;5056997;28;28448;-91
2023/07/15 14:36:22;;;;;;;;;0.00;0.00;;;;;;;;5056777;28;28357;-91
2023/07/15 14:38:48;;;;;;;;;0.00;0.00;;;;;;;;5055307;28;28878;-91